sensor_id;sensor_type;location;lat;lon;timestamp;P1;durP1;ratioP1;P2;durP2;ratioP2
18612;SDS011;9436;52.152;21.032;2023-02-25T00:00:05;16.93;;;11.63;;
18612;SDS011;9436;52.152;21.032;2023-02-25T00:02:43;15.33;;;11.17;;
18612;SDS011;9436;52.152;21.032;2023-02-25T00:05:10;15.97;;;11.80;;
18612;SDS011;9436;52.152;21.032;2023-02-25T00:07:38;15.57;;;11.67;;
18612;SDS011;9436;52.152;21.032;2023-02-25T00:10:05;15.13;;;11.53;;
18612;SDS011;9436;52.152;21.032;2023-02-25T00:12:33;17.63;;;11.63;;
18612;SDS011;9436;52.152;21.032;2023-02-25T00:15:00;16.70;;;12.07;;
18612;SDS011;9436;52.152;21.032;2023-02-25T00:17:27;16.63;;;11.37;;
18612;SDS011;9436;52.152;21.032;2023-02-25T00:19:56;15.20;;;11.40;;
18612;SDS011;9436;52.152;21.032;2023-02-25T00:22:23;17.27;;;11.93;;
18612;SDS011;9436;52.152;21.032;2023-02-25T00:24:52;15.87;;;10.87;;
18612;SDS011;9436;52.152;21.032;2023-02-25T00:27:20;16.47;;;11.67;;
18612;SDS011;9436;52.152;21.032;2023-02-25T00:29:50;15.47;;;11.23;;
18612;SDS011;9436;52.152;21.032;2023-02-25T00:32:17;14.83;;;10.90;;
18612;SDS011;9436;52.152;21.032;2023-02-25T00:34:45;14.67;;;10.70;;
18612;SDS011;9436;52.152;21.032;2023-02-25T00:37:13;14.63;;;10.47;;
18612;SDS011;9436;52.152;21.032;2023-02-25T00:39:40;12.83;;;10.17;;
18612;SDS011;9436;52.152;21.032;2023-02-25T00:42:07;15.00;;;9.80;;
18612;SDS011;9436;52.152;21.032;2023-02-25T00:44:35;13.43;;;9.97;;
18612;SDS011;9436;52.152;21.032;2023-02-25T00:47:03;16.87;;;10.70;;
18612;SDS011;9436;52.152;21.032;2023-02-25T00:49:31;16.30;;;11.27;;
18612;SDS011;9436;52.152;21.032;2023-02-25T00:51:58;16.07;;;11.87;;
18612;SDS011;9436;52.152;21.032;2023-02-25T00:54:27;15.80;;;11.90;;
18612;SDS011;9436;52.152;21.032;2023-02-25T00:56:54;18.60;;;12.83;;
18612;SDS011;9436;52.152;21.032;2023-02-25T00:59:21;16.57;;;13.20;;
18612;SDS011;9436;52.152;21.032;2023-02-25T01:01:48;17.17;;;12.67;;
18612;SDS011;9436;52.152;21.032;2023-02-25T01:04:15;19.33;;;13.47;;
18612;SDS011;9436;52.152;21.032;2023-02-25T01:06:43;18.27;;;13.23;;
18612;SDS011;9436;52.152;21.032;2023-02-25T01:09:10;20.17;;;13.70;;
18612;SDS011;9436;52.152;21.032;2023-02-25T01:11:40;16.50;;;12.80;;
18612;SDS011;9436;52.152;21.032;2023-02-25T01:14:10;18.20;;;13.07;;
18612;SDS011;9436;52.152;21.032;2023-02-25T01:16:39;18.83;;;13.00;;
18612;SDS011;9436;52.152;21.032;2023-02-25T01:19:07;16.83;;;12.90;;
18612;SDS011;9436;52.152;21.032;2023-02-25T01:21:37;17.40;;;13.60;;
18612;SDS011;9436;52.152;21.032;2023-02-25T01:24:08;19.37;;;12.50;;
18612;SDS011;9436;52.152;21.032;2023-02-25T01:26:37;17.67;;;12.83;;
18612;SDS011;9436;52.152;21.032;2023-02-25T01:29:07;15.80;;;11.67;;
18612;SDS011;9436;52.152;21.032;2023-02-25T01:31:35;16.07;;;11.33;;
18612;SDS011;9436;52.152;21.032;2023-02-25T01:34:03;15.43;;;10.83;;
18612;SDS011;9436;52.152;21.032;2023-02-25T01:36:31;16.60;;;11.67;;
18612;SDS011;9436;52.152;21.032;2023-02-25T01:39:00;13.23;;;10.77;;
18612;SDS011;9436;52.152;21.032;2023-02-25T01:41:29;13.50;;;10.50;;
18612;SDS011;9436;52.152;21.032;2023-02-25T01:44:06;15.57;;;10.70;;
18612;SDS011;9436;52.152;21.032;2023-02-25T01:46:36;16.80;;;10.83;;
18612;SDS011;9436;52.152;21.032;2023-02-25T01:49:05;14.50;;;10.10;;
18612;SDS011;9436;52.152;21.032;2023-02-25T01:51:36;14.43;;;10.50;;
18612;SDS011;9436;52.152;21.032;2023-02-25T01:54:04;14.13;;;10.43;;
18612;SDS011;9436;52.152;21.032;2023-02-25T01:56:34;16.37;;;11.00;;
18612;SDS011;9436;52.152;21.032;2023-02-25T01:59:03;13.73;;;10.60;;
18612;SDS011;9436;52.152;21.032;2023-02-25T02:01:33;15.40;;;11.50;;
18612;SDS011;9436;52.152;21.032;2023-02-25T02:04:03;15.37;;;10.83;;
18612;SDS011;9436;52.152;21.032;2023-02-25T02:06:33;15.20;;;11.20;;
18612;SDS011;9436;52.152;21.032;2023-02-25T02:09:03;14.10;;;10.87;;
18612;SDS011;9436;52.152;21.032;2023-02-25T02:11:32;15.73;;;11.37;;
18612;SDS011;9436;52.152;21.032;2023-02-25T02:14:00;15.57;;;11.10;;
18612;SDS011;9436;52.152;21.032;2023-02-25T02:19:32;15.40;;;11.20;;
18612;SDS011;9436;52.152;21.032;2023-02-25T02:22:08;14.97;;;10.80;;
18612;SDS011;9436;52.152;21.032;2023-02-25T02:27:59;13.63;;;10.37;;
18612;SDS011;9436;52.152;21.032;2023-02-25T02:30:47;14.87;;;10.83;;
18612;SDS011;9436;52.152;21.032;2023-02-25T02:33:37;15.33;;;10.40;;
18612;SDS011;9436;52.152;21.032;2023-02-25T02:36:12;15.53;;;9.80;;
18612;SDS011;9436;52.152;21.032;2023-02-25T02:38:47;13.27;;;9.80;;
18612;SDS011;9436;52.152;21.032;2023-02-25T02:41:21;12.07;;;9.63;;
18612;SDS011;9436;52.152;21.032;2023-02-25T02:43:56;14.93;;;9.83;;
18612;SDS011;9436;52.152;21.032;2023-02-25T02:46:31;15.10;;;10.10;;
18612;SDS011;9436;52.152;21.032;2023-02-25T02:49:04;13.07;;;10.27;;
18612;SDS011;9436;52.152;21.032;2023-02-25T02:51:36;12.73;;;9.33;;
18612;SDS011;9436;52.152;21.032;2023-02-25T02:54:07;14.07;;;9.97;;
18612;SDS011;9436;52.152;21.032;2023-02-25T02:56:36;15.10;;;10.83;;
18612;SDS011;9436;52.152;21.032;2023-02-25T02:59:06;14.53;;;10.47;;
18612;SDS011;9436;52.152;21.032;2023-02-25T03:01:40;13.50;;;9.83;;
18612;SDS011;9436;52.152;21.032;2023-02-25T03:04:12;14.13;;;10.43;;
18612;SDS011;9436;52.152;21.032;2023-02-25T03:06:43;14.87;;;9.93;;
18612;SDS011;9436;52.152;21.032;2023-02-25T03:09:14;14.73;;;10.13;;
18612;SDS011;9436;52.152;21.032;2023-02-25T03:11:44;13.17;;;10.43;;
18612;SDS011;9436;52.152;21.032;2023-02-25T03:14:12;13.90;;;10.20;;
18612;SDS011;9436;52.152;21.032;2023-02-25T03:16:41;14.07;;;10.20;;
18612;SDS011;9436;52.152;21.032;2023-02-25T03:19:15;15.60;;;10.37;;
18612;SDS011;9436;52.152;21.032;2023-02-25T03:21:47;13.43;;;10.33;;
18612;SDS011;9436;52.152;21.032;2023-02-25T03:24:19;13.97;;;10.60;;
18612;SDS011;9436;52.152;21.032;2023-02-25T03:26:52;14.63;;;10.13;;
18612;SDS011;9436;52.152;21.032;2023-02-25T03:29:21;14.53;;;10.13;;
18612;SDS011;9436;52.152;21.032;2023-02-25T03:31:52;15.50;;;10.80;;
18612;SDS011;9436;52.152;21.032;2023-02-25T03:34:24;14.80;;;10.70;;
18612;SDS011;9436;52.152;21.032;2023-02-25T03:36:55;16.40;;;11.33;;
18612;SDS011;9436;52.152;21.032;2023-02-25T03:39:25;17.60;;;11.43;;
18612;SDS011;9436;52.152;21.032;2023-02-25T03:41:55;15.07;;;11.30;;
18612;SDS011;9436;52.152;21.032;2023-02-25T03:44:26;13.47;;;10.30;;
18612;SDS011;9436;52.152;21.032;2023-02-25T03:46:58;14.13;;;9.90;;
18612;SDS011;9436;52.152;21.032;2023-02-25T03:49:29;10.70;;;8.50;;
18612;SDS011;9436;52.152;21.032;2023-02-25T03:51:58;12.43;;;8.83;;
18612;SDS011;9436;52.152;21.032;2023-02-25T03:54:29;12.67;;;8.50;;
18612;SDS011;9436;52.152;21.032;2023-02-25T03:56:56;10.43;;;8.07;;
18612;SDS011;9436;52.152;21.032;2023-02-25T03:59:23;10.90;;;8.37;;
18612;SDS011;9436;52.152;21.032;2023-02-25T04:01:52;10.80;;;8.43;;
18612;SDS011;9436;52.152;21.032;2023-02-25T04:04:22;12.27;;;9.67;;
18612;SDS011;9436;52.152;21.032;2023-02-25T04:06:51;10.60;;;8.67;;
18612;SDS011;9436;52.152;21.032;2023-02-25T04:09:18;11.73;;;9.43;;
18612;SDS011;9436;52.152;21.032;2023-02-25T04:11:45;11.97;;;10.17;;
18612;SDS011;9436;52.152;21.032;2023-02-25T04:14:13;11.20;;;9.73;;
18612;SDS011;9436;52.152;21.032;2023-02-25T04:16:42;12.00;;;9.07;;
18612;SDS011;9436;52.152;21.032;2023-02-25T04:19:09;11.47;;;9.10;;
18612;SDS011;9436;52.152;21.032;2023-02-25T04:21:38;11.57;;;9.53;;
18612;SDS011;9436;52.152;21.032;2023-02-25T04:24:05;11.37;;;9.80;;
18612;SDS011;9436;52.152;21.032;2023-02-25T04:26:33;10.43;;;9.33;;
18612;SDS011;9436;52.152;21.032;2023-02-25T04:29:00;10.57;;;8.93;;
18612;SDS011;9436;52.152;21.032;2023-02-25T04:31:28;11.67;;;9.50;;
18612;SDS011;9436;52.152;21.032;2023-02-25T04:33:55;13.03;;;10.13;;
18612;SDS011;9436;52.152;21.032;2023-02-25T04:36:24;12.17;;;9.73;;
18612;SDS011;9436;52.152;21.032;2023-02-25T04:38:54;12.10;;;10.03;;
18612;SDS011;9436;52.152;21.032;2023-02-25T04:41:22;12.03;;;9.93;;
18612;SDS011;9436;52.152;21.032;2023-02-25T04:43:53;10.93;;;9.40;;
18612;SDS011;9436;52.152;21.032;2023-02-25T04:46:20;11.43;;;9.53;;
18612;SDS011;9436;52.152;21.032;2023-02-25T04:48:47;13.60;;;10.13;;
18612;SDS011;9436;52.152;21.032;2023-02-25T04:51:14;11.93;;;9.63;;
18612;SDS011;9436;52.152;21.032;2023-02-25T04:53:41;11.77;;;9.60;;
18612;SDS011;9436;52.152;21.032;2023-02-25T04:56:12;12.00;;;9.80;;
18612;SDS011;9436;52.152;21.032;2023-02-25T04:58:39;12.80;;;10.47;;
18612;SDS011;9436;52.152;21.032;2023-02-25T05:01:07;12.13;;;9.97;;
18612;SDS011;9436;52.152;21.032;2023-02-25T05:03:35;11.30;;;9.50;;
18612;SDS011;9436;52.152;21.032;2023-02-25T05:06:04;11.60;;;10.13;;
18612;SDS011;9436;52.152;21.032;2023-02-25T05:08:31;10.97;;;9.40;;
18612;SDS011;9436;52.152;21.032;2023-02-25T05:10:59;11.60;;;10.37;;
18612;SDS011;9436;52.152;21.032;2023-02-25T05:13:28;11.10;;;9.23;;
18612;SDS011;9436;52.152;21.032;2023-02-25T05:16:02;9.77;;;8.77;;
18612;SDS011;9436;52.152;21.032;2023-02-25T05:18:30;10.00;;;8.77;;
18612;SDS011;9436;52.152;21.032;2023-02-25T05:20:57;9.47;;;8.57;;
18612;SDS011;9436;52.152;21.032;2023-02-25T05:23:25;9.93;;;8.93;;
18612;SDS011;9436;52.152;21.032;2023-02-25T05:25:52;10.07;;;8.53;;
18612;SDS011;9436;52.152;21.032;2023-02-25T05:28:20;9.27;;;8.37;;
18612;SDS011;9436;52.152;21.032;2023-02-25T05:30:49;8.90;;;8.00;;
18612;SDS011;9436;52.152;21.032;2023-02-25T05:33:16;9.53;;;8.53;;
18612;SDS011;9436;52.152;21.032;2023-02-25T05:35:43;8.80;;;7.80;;
18612;SDS011;9436;52.152;21.032;2023-02-25T05:38:10;9.73;;;8.57;;
18612;SDS011;9436;52.152;21.032;2023-02-25T05:40:38;9.40;;;8.40;;
18612;SDS011;9436;52.152;21.032;2023-02-25T05:43:05;9.07;;;8.13;;
18612;SDS011;9436;52.152;21.032;2023-02-25T05:45:33;10.30;;;8.53;;
18612;SDS011;9436;52.152;21.032;2023-02-25T05:48:02;9.90;;;8.83;;
18612;SDS011;9436;52.152;21.032;2023-02-25T05:50:29;9.10;;;8.20;;
18612;SDS011;9436;52.152;21.032;2023-02-25T05:53:05;9.80;;;8.10;;
18612;SDS011;9436;52.152;21.032;2023-02-25T05:55:32;9.17;;;8.17;;
18612;SDS011;9436;52.152;21.032;2023-02-25T05:57:59;10.00;;;7.93;;
18612;SDS011;9436;52.152;21.032;2023-02-25T06:00:26;9.43;;;8.50;;
18612;SDS011;9436;52.152;21.032;2023-02-25T06:02:53;9.47;;;8.20;;
18612;SDS011;9436;52.152;21.032;2023-02-25T06:05:22;9.17;;;8.17;;
18612;SDS011;9436;52.152;21.032;2023-02-25T06:07:49;9.27;;;8.30;;
18612;SDS011;9436;52.152;21.032;2023-02-25T06:10:16;9.90;;;8.80;;
18612;SDS011;9436;52.152;21.032;2023-02-25T06:12:43;10.10;;;8.63;;
18612;SDS011;9436;52.152;21.032;2023-02-25T06:15:10;9.37;;;8.17;;
18612;SDS011;9436;52.152;21.032;2023-02-25T06:17:38;9.97;;;8.80;;
18612;SDS011;9436;52.152;21.032;2023-02-25T06:20:06;10.93;;;9.33;;
18612;SDS011;9436;52.152;21.032;2023-02-25T06:22:36;10.47;;;9.20;;
18612;SDS011;9436;52.152;21.032;2023-02-25T06:25:03;11.20;;;9.93;;
18612;SDS011;9436;52.152;21.032;2023-02-25T06:27:31;11.13;;;9.97;;
18612;SDS011;9436;52.152;21.032;2023-02-25T06:29:58;11.70;;;9.87;;
18612;SDS011;9436;52.152;21.032;2023-02-25T06:32:26;10.17;;;9.13;;
18612;SDS011;9436;52.152;21.032;2023-02-25T06:34:53;10.60;;;9.50;;
18612;SDS011;9436;52.152;21.032;2023-02-25T06:37:20;11.33;;;8.93;;
18612;SDS011;9436;52.152;21.032;2023-02-25T06:39:49;11.33;;;9.97;;
18612;SDS011;9436;52.152;21.032;2023-02-25T06:42:18;10.17;;;9.13;;
18612;SDS011;9436;52.152;21.032;2023-02-25T06:44:45;11.90;;;10.23;;
18612;SDS011;9436;52.152;21.032;2023-02-25T06:47:12;13.03;;;10.20;;
18612;SDS011;9436;52.152;21.032;2023-02-25T06:49:39;13.20;;;10.60;;
18612;SDS011;9436;52.152;21.032;2023-02-25T06:52:06;14.70;;;12.07;;
18612;SDS011;9436;52.152;21.032;2023-02-25T06:54:33;13.23;;;11.03;;
18612;SDS011;9436;52.152;21.032;2023-02-25T06:57:02;13.63;;;11.37;;
18612;SDS011;9436;52.152;21.032;2023-02-25T06:59:29;13.57;;;12.17;;
18612;SDS011;9436;52.152;21.032;2023-02-25T07:01:58;13.03;;;11.27;;
18612;SDS011;9436;52.152;21.032;2023-02-25T07:04:25;15.37;;;12.10;;
18612;SDS011;9436;52.152;21.032;2023-02-25T07:06:52;14.57;;;12.30;;
18612;SDS011;9436;52.152;21.032;2023-02-25T07:09:20;14.27;;;12.07;;
18612;SDS011;9436;52.152;21.032;2023-02-25T07:11:47;15.77;;;12.87;;
18612;SDS011;9436;52.152;21.032;2023-02-25T07:14:16;14.60;;;11.80;;
18612;SDS011;9436;52.152;21.032;2023-02-25T07:16:43;14.83;;;12.27;;
18612;SDS011;9436;52.152;21.032;2023-02-25T07:19:10;14.80;;;12.97;;
18612;SDS011;9436;52.152;21.032;2023-02-25T07:21:39;15.10;;;12.27;;
18612;SDS011;9436;52.152;21.032;2023-02-25T07:24:06;14.97;;;11.80;;
18612;SDS011;9436;52.152;21.032;2023-02-25T07:26:33;15.23;;;12.77;;
18612;SDS011;9436;52.152;21.032;2023-02-25T07:29:00;14.50;;;12.20;;
18612;SDS011;9436;52.152;21.032;2023-02-25T07:31:29;16.33;;;11.90;;
18612;SDS011;9436;52.152;21.032;2023-02-25T07:33:56;15.40;;;12.97;;
18612;SDS011;9436;52.152;21.032;2023-02-25T07:36:27;15.13;;;11.83;;
18612;SDS011;9436;52.152;21.032;2023-02-25T07:38:57;15.23;;;12.80;;
18612;SDS011;9436;52.152;21.032;2023-02-25T07:41:25;14.97;;;12.80;;
18612;SDS011;9436;52.152;21.032;2023-02-25T07:43:53;14.00;;;12.13;;
18612;SDS011;9436;52.152;21.032;2023-02-25T07:46:21;13.67;;;12.13;;
18612;SDS011;9436;52.152;21.032;2023-02-25T07:48:49;13.40;;;11.87;;
18612;SDS011;9436;52.152;21.032;2023-02-25T07:51:17;13.03;;;11.60;;
18612;SDS011;9436;52.152;21.032;2023-02-25T07:53:47;14.93;;;12.87;;
18612;SDS011;9436;52.152;21.032;2023-02-25T07:56:15;14.27;;;12.00;;
18612;SDS011;9436;52.152;21.032;2023-02-25T07:58:43;15.93;;;12.97;;
18612;SDS011;9436;52.152;21.032;2023-02-25T08:01:11;14.80;;;12.37;;
18612;SDS011;9436;52.152;21.032;2023-02-25T08:03:44;15.43;;;13.00;;
18612;SDS011;9436;52.152;21.032;2023-02-25T08:06:14;15.30;;;12.97;;
18612;SDS011;9436;52.152;21.032;2023-02-25T08:08:41;15.23;;;12.93;;
18612;SDS011;9436;52.152;21.032;2023-02-25T08:11:09;15.93;;;13.60;;
18612;SDS011;9436;52.152;21.032;2023-02-25T08:13:38;14.87;;;12.73;;
18612;SDS011;9436;52.152;21.032;2023-02-25T08:16:05;17.03;;;13.47;;
18612;SDS011;9436;52.152;21.032;2023-02-25T08:18:34;15.57;;;13.20;;
18612;SDS011;9436;52.152;21.032;2023-02-25T08:21:02;16.60;;;13.97;;
18612;SDS011;9436;52.152;21.032;2023-02-25T08:23:31;16.47;;;13.53;;
18612;SDS011;9436;52.152;21.032;2023-02-25T08:25:58;14.30;;;12.43;;
18612;SDS011;9436;52.152;21.032;2023-02-25T08:28:26;16.50;;;13.23;;
18612;SDS011;9436;52.152;21.032;2023-02-25T08:30:55;12.87;;;11.40;;
18612;SDS011;9436;52.152;21.032;2023-02-25T08:33:23;15.50;;;12.63;;
18612;SDS011;9436;52.152;21.032;2023-02-25T08:35:51;14.63;;;12.60;;
18612;SDS011;9436;52.152;21.032;2023-02-25T08:38:18;13.37;;;11.63;;
18612;SDS011;9436;52.152;21.032;2023-02-25T08:40:46;14.63;;;11.67;;
18612;SDS011;9436;52.152;21.032;2023-02-25T08:43:14;12.27;;;10.90;;
18612;SDS011;9436;52.152;21.032;2023-02-25T08:45:41;11.70;;;10.13;;
18612;SDS011;9436;52.152;21.032;2023-02-25T08:48:09;11.80;;;10.47;;
18612;SDS011;9436;52.152;21.032;2023-02-25T08:50:36;11.47;;;10.20;;
18612;SDS011;9436;52.152;21.032;2023-02-25T08:53:03;11.60;;;10.40;;
18612;SDS011;9436;52.152;21.032;2023-02-25T08:55:30;11.00;;;9.47;;
18612;SDS011;9436;52.152;21.032;2023-02-25T08:58:00;11.50;;;9.90;;
18612;SDS011;9436;52.152;21.032;2023-02-25T09:00:27;11.03;;;9.93;;
18612;SDS011;9436;52.152;21.032;2023-02-25T09:02:54;11.10;;;9.60;;
18612;SDS011;9436;52.152;21.032;2023-02-25T09:05:21;11.20;;;9.83;;
18612;SDS011;9436;52.152;21.032;2023-02-25T09:07:49;11.40;;;10.20;;
18612;SDS011;9436;52.152;21.032;2023-02-25T09:10:16;13.23;;;10.43;;
18612;SDS011;9436;52.152;21.032;2023-02-25T09:12:44;10.87;;;9.77;;
18612;SDS011;9436;52.152;21.032;2023-02-25T09:15:14;11.30;;;10.10;;
18612;SDS011;9436;52.152;21.032;2023-02-25T09:17:41;11.33;;;10.13;;
18612;SDS011;9436;52.152;21.032;2023-02-25T09:20:08;11.77;;;10.30;;
18612;SDS011;9436;52.152;21.032;2023-02-25T09:22:36;12.63;;;10.70;;
18612;SDS011;9436;52.152;21.032;2023-02-25T09:25:04;11.37;;;9.47;;
18612;SDS011;9436;52.152;21.032;2023-02-25T09:27:32;12.10;;;10.27;;
18612;SDS011;9436;52.152;21.032;2023-02-25T09:29:59;12.00;;;10.17;;
18612;SDS011;9436;52.152;21.032;2023-02-25T09:32:27;10.80;;;9.63;;
18612;SDS011;9436;52.152;21.032;2023-02-25T09:34:54;11.83;;;9.87;;
18612;SDS011;9436;52.152;21.032;2023-02-25T09:37:21;10.03;;;8.80;;
18612;SDS011;9436;52.152;21.032;2023-02-25T09:39:49;9.87;;;8.33;;
18612;SDS011;9436;52.152;21.032;2023-02-25T09:42:17;8.90;;;8.00;;
18612;SDS011;9436;52.152;21.032;2023-02-25T09:44:48;9.47;;;8.40;;
18612;SDS011;9436;52.152;21.032;2023-02-25T09:47:17;10.83;;;8.43;;
18612;SDS011;9436;52.152;21.032;2023-02-25T09:49:50;8.20;;;7.40;;
18612;SDS011;9436;52.152;21.032;2023-02-25T09:52:22;10.13;;;7.70;;
18612;SDS011;9436;52.152;21.032;2023-02-25T09:54:54;9.13;;;6.70;;
18612;SDS011;9436;52.152;21.032;2023-02-25T09:57:27;8.23;;;6.60;;
18612;SDS011;9436;52.152;21.032;2023-02-25T09:59:56;7.50;;;6.13;;
18612;SDS011;9436;52.152;21.032;2023-02-25T10:02:26;7.33;;;6.10;;
18612;SDS011;9436;52.152;21.032;2023-02-25T10:05:15;8.33;;;6.30;;
18612;SDS011;9436;52.152;21.032;2023-02-25T10:07:55;6.73;;;6.03;;
18612;SDS011;9436;52.152;21.032;2023-02-25T10:10:29;7.63;;;6.43;;
18612;SDS011;9436;52.152;21.032;2023-02-25T10:13:05;6.37;;;5.70;;
18612;SDS011;9436;52.152;21.032;2023-02-25T10:15:45;6.57;;;5.63;;
18612;SDS011;9436;52.152;21.032;2023-02-25T10:18:22;7.90;;;5.47;;
18612;SDS011;9436;52.152;21.032;2023-02-25T10:21:03;6.70;;;6.00;;
18612;SDS011;9436;52.152;21.032;2023-02-25T10:23:48;6.60;;;6.00;;
18612;SDS011;9436;52.152;21.032;2023-02-25T10:26:25;7.13;;;6.40;;
18612;SDS011;9436;52.152;21.032;2023-02-25T10:28:55;7.00;;;5.83;;
18612;SDS011;9436;52.152;21.032;2023-02-25T10:31:28;5.17;;;4.43;;
18612;SDS011;9436;52.152;21.032;2023-02-25T10:33:56;4.40;;;4.00;;
18612;SDS011;9436;52.152;21.032;2023-02-25T10:36:28;4.30;;;3.90;;
18612;SDS011;9436;52.152;21.032;2023-02-25T10:38:57;3.83;;;3.10;;
18612;SDS011;9436;52.152;21.032;2023-02-25T10:41:25;3.70;;;3.40;;
18612;SDS011;9436;52.152;21.032;2023-02-25T10:46:28;3.47;;;3.17;;
18612;SDS011;9436;52.152;21.032;2023-02-25T10:49:00;5.37;;;3.50;;
18612;SDS011;9436;52.152;21.032;2023-02-25T10:51:29;4.60;;;3.37;;
18612;SDS011;9436;52.152;21.032;2023-02-25T10:54:00;4.20;;;3.70;;
18612;SDS011;9436;52.152;21.032;2023-02-25T10:56:32;3.60;;;3.30;;
18612;SDS011;9436;52.152;21.032;2023-02-25T10:59:05;4.57;;;4.07;;
18612;SDS011;9436;52.152;21.032;2023-02-25T11:01:34;4.37;;;3.87;;
18612;SDS011;9436;52.152;21.032;2023-02-25T11:04:04;4.40;;;3.43;;
18612;SDS011;9436;52.152;21.032;2023-02-25T11:06:38;4.07;;;3.70;;
18612;SDS011;9436;52.152;21.032;2023-02-25T11:11:55;4.37;;;3.73;;
18612;SDS011;9436;52.152;21.032;2023-02-25T11:14:25;4.10;;;3.70;;
18612;SDS011;9436;52.152;21.032;2023-02-25T11:17:00;5.53;;;4.03;;
18612;SDS011;9436;52.152;21.032;2023-02-25T11:19:29;4.43;;;3.90;;
18612;SDS011;9436;52.152;21.032;2023-02-25T11:22:06;4.20;;;3.80;;
18612;SDS011;9436;52.152;21.032;2023-02-25T11:24:35;4.40;;;4.00;;
18612;SDS011;9436;52.152;21.032;2023-02-25T11:27:05;4.23;;;3.70;;
18612;SDS011;9436;52.152;21.032;2023-02-25T11:29:37;4.33;;;3.93;;
18612;SDS011;9436;52.152;21.032;2023-02-25T11:32:07;4.60;;;4.13;;
18612;SDS011;9436;52.152;21.032;2023-02-25T11:34:42;4.13;;;3.80;;
18612;SDS011;9436;52.152;21.032;2023-02-25T11:37:24;5.13;;;4.63;;
18612;SDS011;9436;52.152;21.032;2023-02-25T11:39:59;5.30;;;4.80;;
18612;SDS011;9436;52.152;21.032;2023-02-25T11:42:26;5.13;;;4.60;;
18612;SDS011;9436;52.152;21.032;2023-02-25T11:44:57;5.53;;;4.90;;
18612;SDS011;9436;52.152;21.032;2023-02-25T11:47:27;6.10;;;5.10;;
18612;SDS011;9436;52.152;21.032;2023-02-25T11:50:03;4.77;;;4.37;;
18612;SDS011;9436;52.152;21.032;2023-02-25T11:52:41;5.47;;;4.87;;
18612;SDS011;9436;52.152;21.032;2023-02-25T11:55:19;4.40;;;4.00;;
18612;SDS011;9436;52.152;21.032;2023-02-25T11:58:00;4.67;;;4.20;;
18612;SDS011;9436;52.152;21.032;2023-02-25T12:00:34;4.27;;;3.90;;
18612;SDS011;9436;52.152;21.032;2023-02-25T12:03:09;4.50;;;4.10;;
18612;SDS011;9436;52.152;21.032;2023-02-25T12:05:58;4.70;;;4.30;;
18612;SDS011;9436;52.152;21.032;2023-02-25T12:08:42;5.27;;;4.77;;
18612;SDS011;9436;52.152;21.032;2023-02-25T12:14:39;5.40;;;4.20;;
18612;SDS011;9436;52.152;21.032;2023-02-25T12:17:39;4.00;;;3.60;;
18612;SDS011;9436;52.152;21.032;2023-02-25T12:20:39;3.90;;;3.53;;
18612;SDS011;9436;52.152;21.032;2023-02-25T12:23:51;4.57;;;3.80;;
18612;SDS011;9436;52.152;21.032;2023-02-25T12:26:57;4.77;;;3.73;;
18612;SDS011;9436;52.152;21.032;2023-02-25T12:29:55;3.57;;;3.23;;
18612;SDS011;9436;52.152;21.032;2023-02-25T12:32:44;4.27;;;3.87;;
18612;SDS011;9436;52.152;21.032;2023-02-25T12:35:33;2.80;;;2.60;;
18612;SDS011;9436;52.152;21.032;2023-02-25T12:41:15;2.93;;;2.70;;
18612;SDS011;9436;52.152;21.032;2023-02-25T12:43:54;2.90;;;2.70;;
18612;SDS011;9436;52.152;21.032;2023-02-25T12:46:37;5.67;;;3.67;;
18612;SDS011;9436;52.152;21.032;2023-02-25T12:52:30;4.57;;;3.57;;
18612;SDS011;9436;52.152;21.032;2023-02-25T12:55:12;4.00;;;3.60;;
18612;SDS011;9436;52.152;21.032;2023-02-25T12:57:51;4.43;;;3.83;;
18612;SDS011;9436;52.152;21.032;2023-02-25T13:00:40;4.37;;;3.97;;
18612;SDS011;9436;52.152;21.032;2023-02-25T13:03:32;4.70;;;3.73;;
18612;SDS011;9436;52.152;21.032;2023-02-25T13:12:32;3.43;;;3.13;;
18612;SDS011;9436;52.152;21.032;2023-02-25T13:15:19;3.63;;;3.33;;
18612;SDS011;9436;52.152;21.032;2023-02-25T13:18:01;3.43;;;3.10;;
18612;SDS011;9436;52.152;21.032;2023-02-25T13:20:42;3.40;;;3.10;;
18612;SDS011;9436;52.152;21.032;2023-02-25T13:26:19;3.20;;;2.90;;
18612;SDS011;9436;52.152;21.032;2023-02-25T13:29:12;3.43;;;3.13;;
18612;SDS011;9436;52.152;21.032;2023-02-25T13:31:54;3.30;;;3.00;;
18612;SDS011;9436;52.152;21.032;2023-02-25T13:34:33;4.00;;;3.60;;
18612;SDS011;9436;52.152;21.032;2023-02-25T13:40:13;3.93;;;3.50;;
18612;SDS011;9436;52.152;21.032;2023-02-25T13:43:08;4.40;;;3.50;;
18612;SDS011;9436;52.152;21.032;2023-02-25T13:45:58;4.20;;;3.80;;
18612;SDS011;9436;52.152;21.032;2023-02-25T13:51:54;4.00;;;3.60;;
18612;SDS011;9436;52.152;21.032;2023-02-25T13:57:34;3.00;;;2.80;;
18612;SDS011;9436;52.152;21.032;2023-02-25T14:00:24;3.87;;;2.73;;
18612;SDS011;9436;52.152;21.032;2023-02-25T14:06:28;2.93;;;2.40;;
18612;SDS011;9436;52.152;21.032;2023-02-25T14:09:15;1.93;;;1.83;;
18612;SDS011;9436;52.152;21.032;2023-02-25T14:11:53;1.73;;;1.50;;
18612;SDS011;9436;52.152;21.032;2023-02-25T14:20:17;2.50;;;2.07;;
18612;SDS011;9436;52.152;21.032;2023-02-25T14:22:55;2.40;;;2.20;;
18612;SDS011;9436;52.152;21.032;2023-02-25T14:28:24;3.00;;;2.53;;
18612;SDS011;9436;52.152;21.032;2023-02-25T14:31:01;2.73;;;2.50;;
18612;SDS011;9436;52.152;21.032;2023-02-25T14:33:44;3.60;;;2.60;;
18612;SDS011;9436;52.152;21.032;2023-02-25T14:36:31;3.30;;;2.57;;
18612;SDS011;9436;52.152;21.032;2023-02-25T14:39:33;3.83;;;3.00;;
18612;SDS011;9436;52.152;21.032;2023-02-25T14:42:14;3.03;;;2.63;;
18612;SDS011;9436;52.152;21.032;2023-02-25T14:44:54;3.27;;;3.00;;
18612;SDS011;9436;52.152;21.032;2023-02-25T14:47:25;3.67;;;3.30;;
18612;SDS011;9436;52.152;21.032;2023-02-25T14:49:56;4.00;;;3.47;;
18612;SDS011;9436;52.152;21.032;2023-02-25T14:52:34;4.37;;;3.97;;
18612;SDS011;9436;52.152;21.032;2023-02-25T14:55:50;4.43;;;4.03;;
18612;SDS011;9436;52.152;21.032;2023-02-25T14:58:40;5.33;;;4.30;;
18612;SDS011;9436;52.152;21.032;2023-02-25T15:07:41;5.57;;;4.20;;
18612;SDS011;9436;52.152;21.032;2023-02-25T15:10:28;5.03;;;3.60;;
18612;SDS011;9436;52.152;21.032;2023-02-25T15:13:11;4.87;;;3.33;;
18612;SDS011;9436;52.152;21.032;2023-02-25T15:16:18;3.73;;;3.23;;
18612;SDS011;9436;52.152;21.032;2023-02-25T15:22:19;4.53;;;3.57;;
18612;SDS011;9436;52.152;21.032;2023-02-25T15:24:48;3.60;;;3.30;;
18612;SDS011;9436;52.152;21.032;2023-02-25T15:27:40;3.83;;;3.40;;
18612;SDS011;9436;52.152;21.032;2023-02-25T15:30:13;4.23;;;3.83;;
18612;SDS011;9436;52.152;21.032;2023-02-25T15:32:55;4.63;;;4.03;;
18612;SDS011;9436;52.152;21.032;2023-02-25T15:35:51;5.27;;;4.20;;
18612;SDS011;9436;52.152;21.032;2023-02-25T15:38:21;5.97;;;5.13;;
18612;SDS011;9436;52.152;21.032;2023-02-25T15:41:28;6.20;;;4.73;;
18612;SDS011;9436;52.152;21.032;2023-02-25T15:47:21;6.20;;;5.10;;
18612;SDS011;9436;52.152;21.032;2023-02-25T15:49:53;6.40;;;4.90;;
18612;SDS011;9436;52.152;21.032;2023-02-25T15:55:29;6.50;;;4.90;;
18612;SDS011;9436;52.152;21.032;2023-02-25T15:57:59;5.60;;;5.00;;
18612;SDS011;9436;52.152;21.032;2023-02-25T16:03:37;6.10;;;5.50;;
18612;SDS011;9436;52.152;21.032;2023-02-25T16:06:06;6.60;;;5.73;;
18612;SDS011;9436;52.152;21.032;2023-02-25T16:08:41;8.37;;;6.43;;
18612;SDS011;9436;52.152;21.032;2023-02-25T16:11:23;8.10;;;6.70;;
18612;SDS011;9436;52.152;21.032;2023-02-25T16:13:56;7.13;;;6.43;;